sensor_id;sensor_type;location;lat;lon;timestamp;P1;durP1;ratioP1;P2;durP2;ratioP2
79616;SDS011;69097;52.132;5.422;2023-07-09T00:02:18;13.18;;;6.25;;
79616;SDS011;69097;52.132;5.422;2023-07-09T00:04:45;12.88;;;6.70;;
79616;SDS011;69097;52.132;5.422;2023-07-09T00:07:33;13.77;;;7.18;;
79616;SDS011;69097;52.132;5.422;2023-07-09T00:09:59;15.32;;;7.10;;
79616;SDS011;69097;52.132;5.422;2023-07-09T00:14:53;12.07;;;6.57;;
79616;SDS011;69097;52.132;5.422;2023-07-09T00:19:55;13.60;;;6.45;;
79616;SDS011;69097;52.132;5.422;2023-07-09T00:22:21;12.07;;;6.45;;
79616;SDS011;69097;52.132;5.422;2023-07-09T00:24:49;13.65;;;6.28;;
79616;SDS011;69097;52.132;5.422;2023-07-09T00:27:17;14.25;;;6.45;;
79616;SDS011;69097;52.132;5.422;2023-07-09T00:29:45;12.98;;;6.30;;
79616;SDS011;69097;52.132;5.422;2023-07-09T00:34:43;13.48;;;6.70;;
79616;SDS011;69097;52.132;5.422;2023-07-09T00:37:17;11.68;;;6.50;;
79616;SDS011;69097;52.132;5.422;2023-07-09T00:39:46;13.38;;;7.00;;
79616;SDS011;69097;52.132;5.422;2023-07-09T00:42:14;13.15;;;7.25;;
79616;SDS011;69097;52.132;5.422;2023-07-09T00:44:44;15.23;;;7.60;;
79616;SDS011;69097;52.132;5.422;2023-07-09T00:50:15;13.48;;;7.63;;
79616;SDS011;69097;52.132;5.422;2023-07-09T00:52:54;16.33;;;7.43;;
79616;SDS011;69097;52.132;5.422;2023-07-09T00:55:25;14.40;;;7.20;;
79616;SDS011;69097;52.132;5.422;2023-07-09T00:57:59;14.70;;;7.80;;
79616;SDS011;69097;52.132;5.422;2023-07-09T01:00:29;15.00;;;7.75;;
79616;SDS011;69097;52.132;5.422;2023-07-09T01:03:04;15.57;;;7.90;;
79616;SDS011;69097;52.132;5.422;2023-07-09T01:05:32;12.18;;;7.50;;
79616;SDS011;69097;52.132;5.422;2023-07-09T01:07:58;19.52;;;7.90;;
79616;SDS011;69097;52.132;5.422;2023-07-09T01:10:25;15.23;;;8.65;;
79616;SDS011;69097;52.132;5.422;2023-07-09T01:12:51;15.48;;;8.23;;
79616;SDS011;69097;52.132;5.422;2023-07-09T01:15:18;15.95;;;9.07;;
79616;SDS011;69097;52.132;5.422;2023-07-09T01:17:45;15.25;;;9.10;;
79616;SDS011;69097;52.132;5.422;2023-07-09T01:20:18;19.50;;;9.25;;
79616;SDS011;69097;52.132;5.422;2023-07-09T01:22:48;16.55;;;8.63;;
79616;SDS011;69097;52.132;5.422;2023-07-09T01:25:16;14.60;;;7.97;;
79616;SDS011;69097;52.132;5.422;2023-07-09T01:27:45;14.80;;;7.75;;
79616;SDS011;69097;52.132;5.422;2023-07-09T01:30:17;13.40;;;7.97;;
79616;SDS011;69097;52.132;5.422;2023-07-09T01:32:57;14.55;;;8.50;;
79616;SDS011;69097;52.132;5.422;2023-07-09T01:35:25;13.93;;;7.95;;
79616;SDS011;69097;52.132;5.422;2023-07-09T01:37:55;14.45;;;7.93;;
79616;SDS011;69097;52.132;5.422;2023-07-09T01:40:22;14.05;;;8.18;;
79616;SDS011;69097;52.132;5.422;2023-07-09T01:42:59;16.50;;;8.77;;
79616;SDS011;69097;52.132;5.422;2023-07-09T01:45:27;16.25;;;8.10;;
79616;SDS011;69097;52.132;5.422;2023-07-09T01:47:54;16.45;;;7.90;;
79616;SDS011;69097;52.132;5.422;2023-07-09T01:50:22;14.50;;;8.18;;
79616;SDS011;69097;52.132;5.422;2023-07-09T01:52:50;15.98;;;7.75;;
79616;SDS011;69097;52.132;5.422;2023-07-09T01:55:17;14.90;;;8.02;;
79616;SDS011;69097;52.132;5.422;2023-07-09T01:57:44;14.45;;;8.45;;
79616;SDS011;69097;52.132;5.422;2023-07-09T02:00:13;14.25;;;8.07;;
79616;SDS011;69097;52.132;5.422;2023-07-09T02:02:42;12.60;;;7.97;;
79616;SDS011;69097;52.132;5.422;2023-07-09T02:05:10;14.02;;;8.40;;
79616;SDS011;69097;52.132;5.422;2023-07-09T02:07:39;15.68;;;8.98;;
79616;SDS011;69097;52.132;5.422;2023-07-09T02:10:06;14.05;;;8.52;;
79616;SDS011;69097;52.132;5.422;2023-07-09T02:12:33;14.18;;;8.10;;
79616;SDS011;69097;52.132;5.422;2023-07-09T02:17:27;15.30;;;8.63;;
79616;SDS011;69097;52.132;5.422;2023-07-09T02:19:54;13.82;;;7.93;;
79616;SDS011;69097;52.132;5.422;2023-07-09T02:22:21;14.70;;;8.15;;
79616;SDS011;69097;52.132;5.422;2023-07-09T02:24:47;15.23;;;8.30;;
79616;SDS011;69097;52.132;5.422;2023-07-09T02:27:15;12.85;;;8.02;;
79616;SDS011;69097;52.132;5.422;2023-07-09T02:29:43;14.23;;;8.55;;
79616;SDS011;69097;52.132;5.422;2023-07-09T02:32:10;15.05;;;7.57;;
79616;SDS011;69097;52.132;5.422;2023-07-09T02:34:54;14.02;;;8.25;;
79616;SDS011;69097;52.132;5.422;2023-07-09T02:37:22;12.82;;;7.03;;
79616;SDS011;69097;52.132;5.422;2023-07-09T02:39:51;15.68;;;7.50;;
79616;SDS011;69097;52.132;5.422;2023-07-09T02:42:20;16.48;;;7.55;;
79616;SDS011;69097;52.132;5.422;2023-07-09T02:44:47;13.82;;;7.68;;
79616;SDS011;69097;52.132;5.422;2023-07-09T02:49:41;13.45;;;7.30;;
79616;SDS011;69097;52.132;5.422;2023-07-09T02:52:08;13.52;;;8.25;;
79616;SDS011;69097;52.132;5.422;2023-07-09T02:54:34;14.57;;;8.40;;
79616;SDS011;69097;52.132;5.422;2023-07-09T02:57:01;14.32;;;8.30;;
79616;SDS011;69097;52.132;5.422;2023-07-09T02:59:28;16.90;;;8.95;;
79616;SDS011;69097;52.132;5.422;2023-07-09T03:01:55;14.38;;;8.30;;
79616;SDS011;69097;52.132;5.422;2023-07-09T03:04:23;16.35;;;8.10;;
79616;SDS011;69097;52.132;5.422;2023-07-09T03:06:49;14.60;;;7.82;;
79616;SDS011;69097;52.132;5.422;2023-07-09T03:09:16;13.70;;;7.80;;
79616;SDS011;69097;52.132;5.422;2023-07-09T03:11:42;13.82;;;7.50;;
79616;SDS011;69097;52.132;5.422;2023-07-09T03:14:09;13.20;;;7.97;;
79616;SDS011;69097;52.132;5.422;2023-07-09T03:16:36;14.60;;;8.13;;
79616;SDS011;69097;52.132;5.422;2023-07-09T03:19:03;14.05;;;8.80;;
79616;SDS011;69097;52.132;5.422;2023-07-09T03:21:30;12.85;;;7.90;;
79616;SDS011;69097;52.132;5.422;2023-07-09T03:23:58;15.07;;;7.93;;
79616;SDS011;69097;52.132;5.422;2023-07-09T03:26:25;14.18;;;7.55;;
79616;SDS011;69097;52.132;5.422;2023-07-09T03:28:52;14.25;;;7.28;;
79616;SDS011;69097;52.132;5.422;2023-07-09T03:31:20;14.98;;;7.10;;
79616;SDS011;69097;52.132;5.422;2023-07-09T03:33:47;13.15;;;7.60;;
79616;SDS011;69097;52.132;5.422;2023-07-09T03:36:14;16.55;;;8.27;;
79616;SDS011;69097;52.132;5.422;2023-07-09T03:38:42;12.80;;;7.13;;
79616;SDS011;69097;52.132;5.422;2023-07-09T03:41:08;12.65;;;7.90;;
79616;SDS011;69097;52.132;5.422;2023-07-09T03:43:35;13.43;;;7.55;;
79616;SDS011;69097;52.132;5.422;2023-07-09T03:46:01;12.88;;;7.35;;
79616;SDS011;69097;52.132;5.422;2023-07-09T03:48:29;14.35;;;7.90;;
79616;SDS011;69097;52.132;5.422;2023-07-09T03:50:55;16.52;;;7.97;;
79616;SDS011;69097;52.132;5.422;2023-07-09T03:53:22;11.50;;;7.03;;
79616;SDS011;69097;52.132;5.422;2023-07-09T03:55:52;14.68;;;7.55;;
79616;SDS011;69097;52.132;5.422;2023-07-09T03:58:20;11.18;;;7.22;;
79616;SDS011;69097;52.132;5.422;2023-07-09T04:00:47;14.10;;;6.72;;
79616;SDS011;69097;52.132;5.422;2023-07-09T04:03:14;12.02;;;7.38;;
79616;SDS011;69097;52.132;5.422;2023-07-09T04:05:40;13.13;;;7.22;;
79616;SDS011;69097;52.132;5.422;2023-07-09T04:08:07;13.43;;;7.07;;
79616;SDS011;69097;52.132;5.422;2023-07-09T04:10:33;13.15;;;7.15;;
79616;SDS011;69097;52.132;5.422;2023-07-09T04:13:00;13.05;;;7.13;;
79616;SDS011;69097;52.132;5.422;2023-07-09T04:15:26;11.00;;;6.88;;
79616;SDS011;69097;52.132;5.422;2023-07-09T04:17:53;14.55;;;7.53;;
79616;SDS011;69097;52.132;5.422;2023-07-09T04:20:21;12.68;;;7.20;;
79616;SDS011;69097;52.132;5.422;2023-07-09T04:25:14;13.30;;;7.35;;
79616;SDS011;69097;52.132;5.422;2023-07-09T04:27:41;13.93;;;7.05;;
79616;SDS011;69097;52.132;5.422;2023-07-09T04:30:10;11.82;;;6.60;;
79616;SDS011;69097;52.132;5.422;2023-07-09T04:32:38;13.35;;;7.38;;
79616;SDS011;69097;52.132;5.422;2023-07-09T04:35:05;14.88;;;8.10;;
79616;SDS011;69097;52.132;5.422;2023-07-09T04:37:32;11.27;;;6.53;;
79616;SDS011;69097;52.132;5.422;2023-07-09T04:42:26;12.60;;;6.47;;
79616;SDS011;69097;52.132;5.422;2023-07-09T04:44:52;12.35;;;7.68;;
79616;SDS011;69097;52.132;5.422;2023-07-09T04:47:19;12.40;;;7.28;;
79616;SDS011;69097;52.132;5.422;2023-07-09T04:49:45;11.80;;;7.22;;
79616;SDS011;69097;52.132;5.422;2023-07-09T04:52:12;14.20;;;7.65;;
79616;SDS011;69097;52.132;5.422;2023-07-09T04:54:40;13.45;;;7.45;;
79616;SDS011;69097;52.132;5.422;2023-07-09T04:57:11;14.32;;;6.97;;
79616;SDS011;69097;52.132;5.422;2023-07-09T04:59:38;12.88;;;7.40;;
79616;SDS011;69097;52.132;5.422;2023-07-09T05:02:05;12.10;;;7.68;;
79616;SDS011;69097;52.132;5.422;2023-07-09T05:06:58;12.68;;;7.40;;
79616;SDS011;69097;52.132;5.422;2023-07-09T05:09:25;13.80;;;8.20;;
79616;SDS011;69097;52.132;5.422;2023-07-09T05:11:51;14.73;;;6.93;;
79616;SDS011;69097;52.132;5.422;2023-07-09T05:14:18;14.27;;;8.13;;
79616;SDS011;69097;52.132;5.422;2023-07-09T05:16:45;12.73;;;7.90;;
79616;SDS011;69097;52.132;5.422;2023-07-09T05:21:38;17.40;;;7.95;;
79616;SDS011;69097;52.132;5.422;2023-07-09T05:24:05;13.10;;;7.55;;
79616;SDS011;69097;52.132;5.422;2023-07-09T05:26:31;13.20;;;7.18;;
79616;SDS011;69097;52.132;5.422;2023-07-09T05:28:58;13.73;;;8.43;;
79616;SDS011;69097;52.132;5.422;2023-07-09T05:31:25;13.80;;;8.05;;
79616;SDS011;69097;52.132;5.422;2023-07-09T05:33:52;15.95;;;7.95;;
79616;SDS011;69097;52.132;5.422;2023-07-09T05:36:19;15.30;;;8.45;;
79616;SDS011;69097;52.132;5.422;2023-07-09T05:41:13;13.65;;;7.57;;
79616;SDS011;69097;52.132;5.422;2023-07-09T05:43:43;16.67;;;9.57;;
79616;SDS011;69097;52.132;5.422;2023-07-09T05:46:13;16.65;;;9.55;;
79616;SDS011;69097;52.132;5.422;2023-07-09T05:48:40;18.02;;;9.18;;
79616;SDS011;69097;52.132;5.422;2023-07-09T05:51:07;17.55;;;10.25;;
79616;SDS011;69097;52.132;5.422;2023-07-09T05:53:33;18.10;;;10.23;;
79616;SDS011;69097;52.132;5.422;2023-07-09T05:56:00;18.98;;;11.15;;
79616;SDS011;69097;52.132;5.422;2023-07-09T05:58:27;17.42;;;11.35;;
79616;SDS011;69097;52.132;5.422;2023-07-09T06:00:55;20.65;;;11.80;;
79616;SDS011;69097;52.132;5.422;2023-07-09T06:03:24;19.13;;;11.88;;
79616;SDS011;69097;52.132;5.422;2023-07-09T06:05:53;17.80;;;10.07;;
79616;SDS011;69097;52.132;5.422;2023-07-09T06:08:20;21.48;;;11.13;;
79616;SDS011;69097;52.132;5.422;2023-07-09T06:10:57;22.20;;;12.43;;
79616;SDS011;69097;52.132;5.422;2023-07-09T06:13:25;21.98;;;12.45;;
79616;SDS011;69097;52.132;5.422;2023-07-09T06:15:53;21.15;;;12.18;;
79616;SDS011;69097;52.132;5.422;2023-07-09T06:18:22;22.00;;;11.40;;
79616;SDS011;69097;52.132;5.422;2023-07-09T06:20:54;21.23;;;12.10;;
79616;SDS011;69097;52.132;5.422;2023-07-09T06:23:21;25.10;;;12.68;;
79616;SDS011;69097;52.132;5.422;2023-07-09T06:25:48;31.10;;;13.25;;
79616;SDS011;69097;52.132;5.422;2023-07-09T06:28:15;22.38;;;12.27;;
79616;SDS011;69097;52.132;5.422;2023-07-09T06:30:43;20.58;;;12.88;;
79616;SDS011;69097;52.132;5.422;2023-07-09T06:33:10;23.23;;;12.65;;
79616;SDS011;69097;52.132;5.422;2023-07-09T06:35:38;20.05;;;11.63;;
79616;SDS011;69097;52.132;5.422;2023-07-09T06:38:06;18.60;;;11.93;;
79616;SDS011;69097;52.132;5.422;2023-07-09T06:40:32;20.65;;;11.95;;
79616;SDS011;69097;52.132;5.422;2023-07-09T06:42:59;20.02;;;11.77;;
79616;SDS011;69097;52.132;5.422;2023-07-09T06:45:25;21.98;;;12.23;;
79616;SDS011;69097;52.132;5.422;2023-07-09T06:47:52;18.98;;;10.88;;
79616;SDS011;69097;52.132;5.422;2023-07-09T06:50:18;20.60;;;12.20;;
79616;SDS011;69097;52.132;5.422;2023-07-09T06:52:45;19.63;;;11.60;;
79616;SDS011;69097;52.132;5.422;2023-07-09T06:55:12;19.67;;;11.25;;
79616;SDS011;69097;52.132;5.422;2023-07-09T06:57:38;18.58;;;11.75;;
79616;SDS011;69097;52.132;5.422;2023-07-09T07:00:05;20.58;;;12.25;;
79616;SDS011;69097;52.132;5.422;2023-07-09T07:02:34;21.05;;;12.27;;
79616;SDS011;69097;52.132;5.422;2023-07-09T07:05:00;20.05;;;12.13;;
79616;SDS011;69097;52.132;5.422;2023-07-09T07:07:27;21.05;;;12.57;;
79616;SDS011;69097;52.132;5.422;2023-07-09T07:09:54;22.33;;;10.98;;
79616;SDS011;69097;52.132;5.422;2023-07-09T07:12:24;23.02;;;12.80;;
79616;SDS011;69097;52.132;5.422;2023-07-09T07:14:55;21.90;;;12.68;;
79616;SDS011;69097;52.132;5.422;2023-07-09T07:17:22;22.95;;;13.23;;
79616;SDS011;69097;52.132;5.422;2023-07-09T07:19:49;20.85;;;12.27;;
79616;SDS011;69097;52.132;5.422;2023-07-09T07:22:16;20.50;;;11.57;;
79616;SDS011;69097;52.132;5.422;2023-07-09T07:24:43;25.10;;;13.30;;
79616;SDS011;69097;52.132;5.422;2023-07-09T07:29:36;19.83;;;11.98;;
79616;SDS011;69097;52.132;5.422;2023-07-09T07:32:03;21.08;;;11.57;;
79616;SDS011;69097;52.132;5.422;2023-07-09T07:34:30;19.85;;;11.75;;
79616;SDS011;69097;52.132;5.422;2023-07-09T07:36:57;19.92;;;12.07;;
79616;SDS011;69097;52.132;5.422;2023-07-09T07:39:23;20.85;;;11.93;;
79616;SDS011;69097;52.132;5.422;2023-07-09T07:41:50;20.88;;;11.15;;
79616;SDS011;69097;52.132;5.422;2023-07-09T07:44:17;25.05;;;10.63;;
79616;SDS011;69097;52.132;5.422;2023-07-09T07:46:44;19.88;;;10.77;;
79616;SDS011;69097;52.132;5.422;2023-07-09T07:49:11;18.55;;;10.38;;
79616;SDS011;69097;52.132;5.422;2023-07-09T07:51:38;21.10;;;11.32;;
79616;SDS011;69097;52.132;5.422;2023-07-09T07:54:05;18.73;;;10.77;;
79616;SDS011;69097;52.132;5.422;2023-07-09T07:56:32;20.60;;;11.45;;
79616;SDS011;69097;52.132;5.422;2023-07-09T07:58:59;17.35;;;9.60;;
79616;SDS011;69097;52.132;5.422;2023-07-09T08:01:25;18.83;;;9.70;;
79616;SDS011;69097;52.132;5.422;2023-07-09T08:03:54;18.25;;;9.75;;
79616;SDS011;69097;52.132;5.422;2023-07-09T08:06:21;16.58;;;9.10;;
79616;SDS011;69097;52.132;5.422;2023-07-09T08:08:48;19.52;;;10.45;;
79616;SDS011;69097;52.132;5.422;2023-07-09T08:11:14;17.65;;;9.27;;
79616;SDS011;69097;52.132;5.422;2023-07-09T08:13:41;18.23;;;9.30;;
79616;SDS011;69097;52.132;5.422;2023-07-09T08:16:08;16.35;;;8.88;;
79616;SDS011;69097;52.132;5.422;2023-07-09T08:18:35;16.70;;;9.75;;
79616;SDS011;69097;52.132;5.422;2023-07-09T08:23:28;13.77;;;7.38;;
79616;SDS011;69097;52.132;5.422;2023-07-09T08:25:56;17.00;;;8.52;;
79616;SDS011;69097;52.132;5.422;2023-07-09T08:28:23;16.77;;;6.05;;
79616;SDS011;69097;52.132;5.422;2023-07-09T08:30:53;12.43;;;6.13;;
79616;SDS011;69097;52.132;5.422;2023-07-09T08:33:20;12.63;;;7.15;;
79616;SDS011;69097;52.132;5.422;2023-07-09T08:35:51;12.07;;;6.35;;
79616;SDS011;69097;52.132;5.422;2023-07-09T08:38:19;15.63;;;6.35;;
79616;SDS011;69097;52.132;5.422;2023-07-09T08:40:57;15.05;;;7.40;;
79616;SDS011;69097;52.132;5.422;2023-07-09T08:43:39;13.38;;;6.13;;
79616;SDS011;69097;52.132;5.422;2023-07-09T08:48:57;10.55;;;5.50;;
79616;SDS011;69097;52.132;5.422;2023-07-09T08:51:36;12.32;;;6.10;;
79616;SDS011;69097;52.132;5.422;2023-07-09T08:54:08;11.98;;;5.65;;
79616;SDS011;69097;52.132;5.422;2023-07-09T08:56:40;10.50;;;5.68;;
79616;SDS011;69097;52.132;5.422;2023-07-09T09:01:36;13.15;;;6.18;;
79616;SDS011;69097;52.132;5.422;2023-07-09T09:04:18;12.48;;;6.00;;
79616;SDS011;69097;52.132;5.422;2023-07-09T09:06:51;14.02;;;6.50;;
79616;SDS011;69097;52.132;5.422;2023-07-09T09:12:38;14.65;;;6.25;;
79616;SDS011;69097;52.132;5.422;2023-07-09T09:15:18;13.55;;;5.22;;
79616;SDS011;69097;52.132;5.422;2023-07-09T09:17:48;12.35;;;5.28;;
79616;SDS011;69097;52.132;5.422;2023-07-09T09:20:20;11.23;;;5.80;;
79616;SDS011;69097;52.132;5.422;2023-07-09T09:22:50;10.82;;;5.25;;
79616;SDS011;69097;52.132;5.422;2023-07-09T09:27:50;9.52;;;4.85;;
79616;SDS011;69097;52.132;5.422;2023-07-09T09:30:18;14.13;;;5.57;;
79616;SDS011;69097;52.132;5.422;2023-07-09T09:32:58;13.02;;;5.72;;
79616;SDS011;69097;52.132;5.422;2023-07-09T09:35:33;11.30;;;5.43;;
79616;SDS011;69097;52.132;5.422;2023-07-09T09:38:01;13.32;;;5.05;;
79616;SDS011;69097;52.132;5.422;2023-07-09T09:40:35;11.18;;;5.80;;
79616;SDS011;69097;52.132;5.422;2023-07-09T09:43:02;12.52;;;5.13;;
79616;SDS011;69097;52.132;5.422;2023-07-09T09:45:40;10.40;;;5.18;;
79616;SDS011;69097;52.132;5.422;2023-07-09T09:48:28;9.65;;;5.22;;
79616;SDS011;69097;52.132;5.422;2023-07-09T09:50:57;11.20;;;5.10;;
79616;SDS011;69097;52.132;5.422;2023-07-09T09:53:29;12.75;;;5.40;;
79616;SDS011;69097;52.132;5.422;2023-07-09T09:56:03;13.48;;;5.47;;
79616;SDS011;69097;52.132;5.422;2023-07-09T09:58:31;13.00;;;5.28;;
79616;SDS011;69097;52.132;5.422;2023-07-09T10:00:58;24.73;;;6.05;;
79616;SDS011;69097;52.132;5.422;2023-07-09T10:03:37;14.75;;;5.88;;
79616;SDS011;69097;52.132;5.422;2023-07-09T10:09:13;12.20;;;5.32;;
79616;SDS011;69097;52.132;5.422;2023-07-09T10:11:58;10.02;;;4.35;;
79616;SDS011;69097;52.132;5.422;2023-07-09T10:17:23;10.25;;;4.82;;
79616;SDS011;69097;52.132;5.422;2023-07-09T10:19:58;12.15;;;5.80;;
79616;SDS011;69097;52.132;5.422;2023-07-09T10:22:40;10.57;;;4.95;;
79616;SDS011;69097;52.132;5.422;2023-07-09T10:26:01;14.05;;;6.10;;
79616;SDS011;69097;52.132;5.422;2023-07-09T10:28:29;13.40;;;7.03;;
79616;SDS011;69097;52.132;5.422;2023-07-09T10:39:26;15.45;;;7.18;;
79616;SDS011;69097;52.132;5.422;2023-07-09T10:41:59;13.43;;;8.25;;
79616;SDS011;69097;52.132;5.422;2023-07-09T10:47:10;15.60;;;8.88;;
79616;SDS011;69097;52.132;5.422;2023-07-09T10:49:47;13.70;;;6.70;;
79616;SDS011;69097;52.132;5.422;2023-07-09T10:52:25;13.43;;;7.82;;
79616;SDS011;69097;52.132;5.422;2023-07-09T10:55:05;14.80;;;7.70;;
79616;SDS011;69097;52.132;5.422;2023-07-09T10:57:43;14.38;;;7.68;;
79616;SDS011;69097;52.132;5.422;2023-07-09T11:00:15;15.10;;;8.30;;
79616;SDS011;69097;52.132;5.422;2023-07-09T11:02:45;11.07;;;7.32;;
79616;SDS011;69097;52.132;5.422;2023-07-09T11:05:21;13.07;;;6.97;;
79616;SDS011;69097;52.132;5.422;2023-07-09T11:07:58;12.93;;;6.88;;
79616;SDS011;69097;52.132;5.422;2023-07-09T11:10:32;16.40;;;7.90;;
79616;SDS011;69097;52.132;5.422;2023-07-09T11:13:04;15.63;;;8.35;;
79616;SDS011;69097;52.132;5.422;2023-07-09T11:15:38;15.05;;;7.43;;
79616;SDS011;69097;52.132;5.422;2023-07-09T11:18:10;13.93;;;7.78;;
79616;SDS011;69097;52.132;5.422;2023-07-09T11:20:43;17.23;;;8.45;;
79616;SDS011;69097;52.132;5.422;2023-07-09T11:25:59;14.43;;;8.57;;
79616;SDS011;69097;52.132;5.422;2023-07-09T11:28:39;16.02;;;8.35;;
79616;SDS011;69097;52.132;5.422;2023-07-09T11:31:31;15.32;;;8.75;;
79616;SDS011;69097;52.132;5.422;2023-07-09T11:34:00;11.80;;;7.43;;
79616;SDS011;69097;52.132;5.422;2023-07-09T11:36:29;14.98;;;8.23;;
79616;SDS011;69097;52.132;5.422;2023-07-09T11:39:01;16.65;;;9.63;;
79616;SDS011;69097;52.132;5.422;2023-07-09T11:41:36;14.25;;;8.80;;
79616;SDS011;69097;52.132;5.422;2023-07-09T11:46:36;14.73;;;8.25;;
79616;SDS011;69097;52.132;5.422;2023-07-09T11:49:14;13.38;;;8.00;;
79616;SDS011;69097;52.132;5.422;2023-07-09T11:51:41;16.33;;;8.73;;
79616;SDS011;69097;52.132;5.422;2023-07-09T11:54:13;15.82;;;8.48;;
79616;SDS011;69097;52.132;5.422;2023-07-09T11:56:40;15.10;;;8.90;;
79616;SDS011;69097;52.132;5.422;2023-07-09T11:59:07;14.13;;;7.90;;
79616;SDS011;69097;52.132;5.422;2023-07-09T12:01:43;14.27;;;7.75;;
79616;SDS011;69097;52.132;5.422;2023-07-09T12:04:15;17.25;;;7.65;;
79616;SDS011;69097;52.132;5.422;2023-07-09T12:06:44;15.77;;;7.60;;
79616;SDS011;69097;52.132;5.422;2023-07-09T12:09:19;10.25;;;5.85;;
79616;SDS011;69097;52.132;5.422;2023-07-09T12:11:48;9.60;;;5.45;;
79616;SDS011;69097;52.132;5.422;2023-07-09T12:14:17;9.95;;;5.03;;
79616;SDS011;69097;52.132;5.422;2023-07-09T12:16:47;8.68;;;5.10;;
79616;SDS011;69097;52.132;5.422;2023-07-09T12:19:19;10.55;;;5.35;;
79616;SDS011;69097;52.132;5.422;2023-07-09T12:21:48;9.98;;;5.38;;
79616;SDS011;69097;52.132;5.422;2023-07-09T12:24:20;9.45;;;4.97;;
79616;SDS011;69097;52.132;5.422;2023-07-09T12:26:56;9.93;;;4.60;;
79616;SDS011;69097;52.132;5.422;2023-07-09T12:29:28;8.82;;;4.60;;
79616;SDS011;69097;52.132;5.422;2023-07-09T12:31:56;11.05;;;4.63;;
79616;SDS011;69097;52.132;5.422;2023-07-09T12:34:24;11.40;;;5.07;;
79616;SDS011;69097;52.132;5.422;2023-07-09T12:36:52;10.50;;;4.70;;
79616;SDS011;69097;52.132;5.422;2023-07-09T12:39:22;11.98;;;5.10;;
79616;SDS011;69097;52.132;5.422;2023-07-09T12:41:53;10.25;;;5.25;;
79616;SDS011;69097;52.132;5.422;2023-07-09T12:44:22;12.60;;;4.97;;
79616;SDS011;69097;52.132;5.422;2023-07-09T12:46:50;9.30;;;5.00;;
79616;SDS011;69097;52.132;5.422;2023-07-09T12:51:45;10.60;;;5.40;;
79616;SDS011;69097;52.132;5.422;2023-07-09T12:54:13;9.80;;;4.97;;
79616;SDS011;69097;52.132;5.422;2023-07-09T12:56:41;9.75;;;5.07;;
79616;SDS011;69097;52.132;5.422;2023-07-09T12:59:42;9.70;;;5.10;;
79616;SDS011;69097;52.132;5.422;2023-07-09T13:02:18;11.00;;;4.82;;
79616;SDS011;69097;52.132;5.422;2023-07-09T13:04:46;10.63;;;4.35;;
79616;SDS011;69097;52.132;5.422;2023-07-09T13:09:50;9.13;;;4.70;;
79616;SDS011;69097;52.132;5.422;2023-07-09T13:12:18;9.50;;;5.50;;
79616;SDS011;69097;52.132;5.422;2023-07-09T13:14:54;12.90;;;5.22;;
79616;SDS011;69097;52.132;5.422;2023-07-09T13:17:29;11.20;;;5.22;;
79616;SDS011;69097;52.132;5.422;2023-07-09T13:19:57;9.35;;;5.22;;
79616;SDS011;69097;52.132;5.422;2023-07-09T13:22:24;9.13;;;4.60;;
79616;SDS011;69097;52.132;5.422;2023-07-09T13:24:51;8.93;;;4.70;;
79616;SDS011;69097;52.132;5.422;2023-07-09T13:27:18;9.85;;;3.95;;
79616;SDS011;69097;52.132;5.422;2023-07-09T13:29:45;11.85;;;4.07;;
79616;SDS011;69097;52.132;5.422;2023-07-09T13:32:13;12.13;;;4.38;;
79616;SDS011;69097;52.132;5.422;2023-07-09T13:34:41;9.18;;;4.70;;
79616;SDS011;69097;52.132;5.422;2023-07-09T13:37:10;10.05;;;5.25;;
79616;SDS011;69097;52.132;5.422;2023-07-09T13:39:39;8.48;;;4.68;;
79616;SDS011;69097;52.132;5.422;2023-07-09T13:42:10;9.50;;;4.75;;
79616;SDS011;69097;52.132;5.422;2023-07-09T13:44:39;9.65;;;4.63;;
79616;SDS011;69097;52.132;5.422;2023-07-09T13:47:14;9.80;;;4.78;;
79616;SDS011;69097;52.132;5.422;2023-07-09T13:49:43;9.55;;;4.22;;
79616;SDS011;69097;52.132;5.422;2023-07-09T13:52:21;10.80;;;5.13;;
79616;SDS011;69097;52.132;5.422;2023-07-09T13:54:50;10.05;;;4.50;;
79616;SDS011;69097;52.132;5.422;2023-07-09T13:57:18;9.18;;;4.40;;
79616;SDS011;69097;52.132;5.422;2023-07-09T13:59:47;9.60;;;4.63;;
79616;SDS011;69097;52.132;5.422;2023-07-09T14:02:20;7.82;;;3.80;;
79616;SDS011;69097;52.132;5.422;2023-07-09T14:04:58;8.23;;;4.35;;
79616;SDS011;69097;52.132;5.422;2023-07-09T14:07:31;10.25;;;4.10;;
79616;SDS011;69097;52.132;5.422;2023-07-09T14:09:59;8.43;;;3.75;;
79616;SDS011;69097;52.132;5.422;2023-07-09T14:12:28;8.32;;;3.55;;
79616;SDS011;69097;52.132;5.422;2023-07-09T14:14:57;7.10;;;3.33;;
79616;SDS011;69097;52.132;5.422;2023-07-09T14:17:26;10.40;;;2.88;;
79616;SDS011;69097;52.132;5.422;2023-07-09T14:19:53;8.93;;;2.63;;
79616;SDS011;69097;52.132;5.422;2023-07-09T14:22:21;10.30;;;3.05;;
79616;SDS011;69097;52.132;5.422;2023-07-09T14:24:53;7.65;;;2.75;;
79616;SDS011;69097;52.132;5.422;2023-07-09T14:27:19;7.85;;;2.95;;
79616;SDS011;69097;52.132;5.422;2023-07-09T14:29:46;8.60;;;2.33;;
79616;SDS011;69097;52.132;5.422;2023-07-09T14:35:02;7.97;;;2.72;;
79616;SDS011;69097;52.132;5.422;2023-07-09T14:37:51;6.68;;;2.78;;
79616;SDS011;69097;52.132;5.422;2023-07-09T14:40:20;10.43;;;3.00;;
79616;SDS011;69097;52.132;5.422;2023-07-09T14:42:48;10.25;;;3.63;;
79616;SDS011;69097;52.132;5.422;2023-07-09T14:45:16;9.10;;;2.80;;
79616;SDS011;69097;52.132;5.422;2023-07-09T14:47:46;7.38;;;3.13;;
79616;SDS011;69097;52.132;5.422;2023-07-09T14:50:31;11.48;;;3.72;;
79616;SDS011;69097;52.132;5.422;2023-07-09T14:53:45;10.95;;;3.63;;
79616;SDS011;69097;52.132;5.422;2023-07-09T14:56:14;11.75;;;3.40;;
79616;SDS011;69097;52.132;5.422;2023-07-09T14:58:41;11.05;;;3.38;;
79616;SDS011;69097;52.132;5.422;2023-07-09T15:03:39;12.13;;;2.88;;
79616;SDS011;69097;52.132;5.422;2023-07-09T15:06:06;15.23;;;3.70;;
79616;SDS011;69097;52.132;5.422;2023-07-09T15:08:35;15.48;;;3.60;;
79616;SDS011;69097;52.132;5.422;2023-07-09T15:11:19;14.35;;;4.00;;
79616;SDS011;69097;52.132;5.422;2023-07-09T15:14:12;9.52;;;3.50;;
79616;SDS011;69097;52.132;5.422;2023-07-09T15:16:41;9.25;;;2.63;;
79616;SDS011;69097;52.132;5.422;2023-07-09T15:19:34;9.32;;;2.38;;
79616;SDS011;69097;52.132;5.422;2023-07-09T15:22:31;8.27;;;3.50;;
79616;SDS011;69097;52.132;5.422;2023-07-09T15:25:28;7.30;;;2.50;;
79616;SDS011;69097;52.132;5.422;2023-07-09T15:28:24;9.18;;;2.28;;
79616;SDS011;69097;52.132;5.422;2023-07-09T15:31:13;6.95;;;2.42;;
79616;SDS011;69097;52.132;5.422;2023-07-09T15:33:49;10.05;;;2.85;;
79616;SDS011;69097;52.132;5.422;2023-07-09T15:36:48;10.18;;;3.22;;
79616;SDS011;69097;52.132;5.422;2023-07-09T15:39:36;8.77;;;2.65;;
79616;SDS011;69097;52.132;5.422;2023-07-09T15:42:18;7.82;;;2.65;;
79616;SDS011;69097;52.132;5.422;2023-07-09T15:45:20;7.95;;;3.55;;
79616;SDS011;69097;52.132;5.422;2023-07-09T15:48:31;10.00;;;3.50;;
79616;SDS011;69097;52.132;5.422;2023-07-09T15:51:15;9.85;;;3.90;;
79616;SDS011;69097;52.132;5.422;2023-07-09T15:54:13;11.00;;;5.03;;
79616;SDS011;69097;52.132;5.422;2023-07-09T15:56:48;12.88;;;4.88;;
79616;SDS011;69097;52.132;5.422;2023-07-09T15:59:34;11.05;;;5.00;;
79616;SDS011;69097;52.132;5.422;2023-07-09T16:02:12;12.52;;;5.93;;
79616;SDS011;69097;52.132;5.422;2023-07-09T16:04:44;12.23;;;6.10;;
79616;SDS011;69097;52.132;5.422;2023-07-09T16:07:34;12.60;;;5.35;;
79616;SDS011;69097;52.132;5.422;2023-07-09T16:10:57;13.85;;;6.25;;
79616;SDS011;69097;52.132;5.422;2023-07-09T16:14:20;13.98;;;6.38;;